Time;durP1;ratioP1;P1;durP2;ratioP2;P2;SDS_P1;SDS_P2;PMS_P1;PMS_P2;Temp;Humidity;BMP_temperature;BMP_pressure;BME280_temperature;BME280_humidity;BME280_pressure;Samples;Min_cycle;Max_cycle;Signal;HPM_P1;HPM_P2
2023/01/19 00:00:01;;;;;;;23.70;2.85;;;;;;;14.40;64.88;100323.59;4997614;28;20026;-90
2023/01/19 00:08:13;;;;;;;16.65;3.03;;;;;;;14.21;65.02;100309.72;5180970;23;20068;-89
2023/01/19 00:11:28;;;;;;;12.95;2.97;;;;;;;14.17;65.24;100307.59;4999670;28;20069;-90
2023/01/19 00:14:35;;;;;;;20.90;3.83;;;;;;;14.32;65.37;100333.50;5014348;28;20093;-87
2023/01/19 00:17:36;;;;;;;14.57;3.38;;;;;;;14.17;65.44;100318.41;4995273;28;20041;-90
2023/01/19 00:20:14;;;;;;;14.80;2.88;;;;;;;14.11;65.29;100315.41;5012015;28;20058;-89
2023/01/19 00:23:52;;;;;;;18.50;3.08;;;;;;;14.08;65.31;100305.00;5009759;28;20098;-91
2023/01/19 00:31:34;;;;;;;18.75;3.20;;;;;;;14.21;65.00;100314.25;5029432;28;20053;-88
2023/01/19 00:34:25;;;;;;;14.82;2.92;;;;;;;14.20;65.09;100318.00;5026322;28;20038;-91
2023/01/19 00:37:11;;;;;;;17.17;3.03;;;;;;;14.20;65.25;100318.00;5022894;28;20026;-91
2023/01/19 00:40:30;;;;;;;13.57;2.83;;;;;;;14.29;65.28;100343.91;5017939;28;20072;-90
2023/01/19 00:43:00;;;;;;;14.35;2.80;;;;;;;14.40;65.10;100351.50;5030740;28;20136;-90
2023/01/19 00:45:50;;;;;;;16.13;3.70;;;;;;;14.03;65.19;100312.03;5058921;23;20054;-89
2023/01/19 00:49:04;;;;;;;14.88;3.00;;;;;;;14.24;65.29;100344.47;5005008;28;20046;-92
2023/01/19 00:52:25;;;;;;;13.77;3.30;;;;;;;14.21;65.61;100342.16;5102780;23;20037;-89
2023/01/19 00:57:55;;;;;;;17.75;2.60;;;;;;;14.16;65.07;100309.44;5048921;22;20042;-90
2023/01/19 01:00:49;;;;;;;15.27;3.03;;;;;;;14.14;64.94;100301.53;4990667;28;20054;-91
2023/01/19 01:04:06;;;;;;;15.80;3.08;;;;;;;14.09;65.12;100290.47;4997355;28;20038;-90
2023/01/19 01:19:15;;;;;;;13.70;2.88;;;;;;;14.05;65.20;100251.34;5734212;23;20042;-91
2023/01/19 01:27:14;;;;;;;17.63;3.00;;;;;;;14.11;65.39;100265.94;5234090;23;20245;-90
2023/01/19 01:30:04;;;;;;;18.52;3.55;;;;;;;14.19;65.23;100251.44;4996019;28;20054;-91
2023/01/19 01:32:37;;;;;;;15.77;2.85;;;;;;;14.23;65.23;100241.91;5001870;28;20057;-88
2023/01/19 01:35:51;;;;;;;19.75;3.97;;;;;;;14.28;65.16;100252.97;4991117;28;20156;-88
2023/01/19 01:39:15;;;;;;;15.70;3.38;;;;;;;14.27;64.76;100264.84;5003293;28;20046;-90
2023/01/19 01:42:29;;;;;;;13.57;2.78;;;;;;;14.21;64.90;100254.78;5011206;28;20046;-91
2023/01/19 01:45:41;;;;;;;18.70;2.92;;;;;;;14.38;65.06;100277.84;4916394;29;20439;-91
2023/01/19 01:48:29;;;;;;;21.42;3.22;;;;;;;14.17;65.03;100237.31;4967928;28;20087;-89
2023/01/19 01:51:25;;;;;;;11.02;2.17;;;;;;;14.22;65.00;100272.69;5000005;28;20050;-90
2023/01/19 01:54:26;;;;;;;15.00;3.30;;;;;;;14.22;64.74;100254.59;4981123;28;20043;-89
2023/01/19 02:17:38;;;;;;;16.25;3.28;;;;;;;14.52;64.44;100285.03;5014669;28;20108;-93
2023/01/19 02:20:56;;;;;;;16.23;2.75;;;;;;;14.50;64.18;100288.97;5013377;28;20057;-94
2023/01/19 02:27:08;;;;;;;13.20;3.03;;;;;;;14.51;64.48;100298.72;5047460;23;20050;-90
2023/01/19 02:30:23;;;;;;;14.98;2.75;;;;;;;14.35;64.26;100283.59;5028293;28;20057;-88
2023/01/19 02:33:48;;;;;;;21.42;3.53;;;;;;;14.36;64.50;100274.47;5036106;28;20046;-90
2023/01/19 02:37:13;;;;;;;12.23;2.80;;;;;;;14.32;64.66;100284.00;5027027;28;20064;-92
2023/01/19 02:40:01;;;;;;;15.23;2.72;;;;;;;14.41;64.29;100282.84;5033868;28;20102;-91
2023/01/19 02:42:59;;;;;;;19.92;3.45;;;;;;;14.41;64.08;100282.84;5034397;28;20061;-90
2023/01/19 02:46:09;;;;;;;16.27;2.95;;;;;;;14.33;64.15;100285.69;5031532;28;20068;-89
2023/01/19 02:49:25;;;;;;;20.42;3.47;;;;;;;14.54;64.30;100317.31;5005912;28;20038;-91
2023/01/19 02:52:40;;;;;;;18.75;3.08;;;;;;;14.43;64.14;100297.00;5032967;28;20116;-91
2023/01/19 03:13:58;;;;;;;13.25;2.67;;;;;;;14.45;65.23;100340.94;4351343;26;20498;-90
2023/01/19 03:16:56;;;;;;;15.73;2.90;;;;;;;14.26;65.04;100311.84;5015212;28;20038;-89
2023/01/19 03:19:48;;;;;;;19.20;2.88;;;;;;;14.44;65.45;100341.94;4998436;28;20049;-90
2023/01/19 03:22:26;;;;;;;18.73;2.88;;;;;;;14.41;65.38;100333.41;5017266;28;20030;-90
2023/01/19 03:25:18;;;;;;;14.88;2.88;;;;;;;14.32;65.72;100338.91;5007049;28;20080;-91
2023/01/19 03:28:33;;;;;;;17.05;3.38;;;;;;;14.41;65.38;100342.34;5000365;28;20033;-91
2023/01/19 03:41:52;;;;;;;22.08;3.58;;;;;;;14.42;66.07;100360.25;4939678;23;20157;-90
2023/01/19 03:44:44;;;;;;;20.90;3.13;;;;;;;14.38;66.19;100347.31;4999499;28;20035;-89
2023/01/19 03:47:39;;;;;;;16.27;3.03;;;;;;;14.38;66.06;100353.56;4986563;28;20069;-90
2023/01/19 03:50:33;;;;;;;21.23;3.92;;;;;;;14.36;66.31;100352.91;4998948;28;20042;-89
2023/01/19 03:54:01;;;;;;;19.10;3.13;;;;;;;14.41;66.30;100355.03;4994957;28;20057;-89
2023/01/19 03:57:35;;;;;;;19.88;3.22;;;;;;;14.34;66.62;100357.66;4992726;28;20030;-89
2023/01/19 04:00:46;;;;;;;19.58;3.05;;;;;;;14.27;66.85;100348.66;4977251;28;20050;-89
2023/01/19 04:03:18;;;;;;;19.90;3.05;;;;;;;14.24;66.96;100354.47;4951199;29;20071;-88
2023/01/19 04:05:47;;;;;;;21.30;3.22;;;;;;;14.44;66.63;100363.59;4934586;29;20066;-90
2023/01/19 04:08:53;;;;;;;23.13;3.40;;;;;;;14.26;66.57;100336.19;4932920;29;20040;-90
2023/01/19 04:12:21;;;;;;;16.65;3.47;;;;;;;14.33;66.93;100364.13;4947398;29;20107;-90
2023/01/19 04:15:02;;;;;;;16.48;3.33;;;;;;;14.26;66.94;100360.50;4952259;28;20054;-92
2023/01/19 04:25:14;;;;;;;20.80;3.15;;;;;;;14.15;66.99;100335.63;2182733;22;20038;-90
2023/01/19 04:27:52;;;;;;;24.80;3.83;;;;;;;14.23;67.00;100348.19;4960560;28;20129;-91
2023/01/19 04:30:45;;;;;;;21.63;3.50;;;;;;;14.15;66.99;100341.03;5562046;22;20043;-90
2023/01/19 04:39:18;;;;;;;19.55;3.28;;;;;;;14.32;67.60;100386.75;1679995;23;20379;-86
2023/01/19 04:43:00;;;;;;;19.98;3.00;;;;;;;14.09;67.74;100371.56;4997388;28;20100;-91
2023/01/19 04:46:06;;;;;;;18.17;3.65;;;;;;;14.23;67.69;100385.22;4991178;28;20077;-92
2023/01/19 04:51:35;;;;;;;17.33;3.38;;;;;;;14.18;67.39;100384.94;5117161;23;20047;-91
2023/01/19 05:13:03;;;;;;;25.00;4.03;;;;;;;14.18;66.97;100409.28;3056154;23;20106;-93
2023/01/19 05:16:41;;;;;;;21.30;3.90;;;;;;;14.27;67.26;100417.09;4976977;28;20095;-93
2023/01/19 05:25:11;;;;;;;26.05;4.00;;;;;;;14.11;67.09;100407.34;2017194;23;20077;-94
2023/01/19 05:28:44;;;;;;;18.17;3.53;;;;;;;14.20;66.88;100399.13;4995245;28;20046;-93
2023/01/19 05:31:42;;;;;;;21.75;3.97;;;;;;;14.32;66.78;100440.84;4989468;28;20069;-90
2023/01/19 05:34:53;;;;;;;22.02;3.65;;;;;;;14.14;66.59;100398.84;5001574;28;20042;-90
2023/01/19 05:38:20;;;;;;;23.52;4.15;;;;;;;14.44;66.29;100438.47;4959194;29;20120;-93
2023/01/19 05:41:35;;;;;;;22.58;4.07;;;;;;;14.45;66.59;100440.19;4914703;29;20033;-89
2023/01/19 05:44:25;;;;;;;26.20;4.68;;;;;;;14.35;66.52;100435.03;5040418;23;20120;-91
2023/01/19 05:47:11;;;;;;;18.25;3.42;;;;;;;14.33;66.39;100453.34;5089375;23;20097;-91
2023/01/19 05:49:50;;;;;;;21.02;3.85;;;;;;;14.44;65.90;100446.59;5035257;23;20038;-89
2023/01/19 05:52:40;;;;;;;23.83;3.92;;;;;;;14.17;66.27;100437.38;5485460;22;20835;-89
2023/01/19 05:55:53;;;;;;;26.70;4.38;;;;;;;14.55;65.85;100468.59;5350258;23;20073;-92
2023/01/19 05:58:27;;;;;;;23.55;3.90;;;;;;;14.29;66.16;100449.34;5119543;23;20103;-93
2023/01/19 06:07:10;;;;;;;25.02;3.75;;;;;;;14.30;65.63;100453.72;5025631;28;20034;-92
2023/01/19 06:10:01;;;;;;;19.70;3.88;;;;;;;14.45;65.59;100484.28;5475279;23;20098;-91
2023/01/19 06:12:52;;;;;;;26.40;3.78;;;;;;;14.54;65.41;100499.41;5065151;28;20048;-91
2023/01/19 06:17:50;;;;;;;24.80;4.35;;;;;;;14.62;64.91;100505.72;5010750;28;20084;-93
2023/01/19 06:20:19;;;;;;;19.90;3.42;;;;;;;14.53;64.90;100503.09;4960859;28;20170;-93
2023/01/19 06:22:53;;;;;;;24.48;3.67;;;;;;;14.68;64.55;100497.69;5004801;28;20151;-91
2023/01/19 06:28:09;;;;;;;20.88;3.40;;;;;;;14.61;64.23;100496.78;5014410;28;20054;-92
2023/01/19 06:30:58;;;;;;;21.52;3.53;;;;;;;14.69;64.17;100485.81;5119898;23;20307;-91
2023/01/19 06:42:23;;;;;;;29.17;4.47;;;;;;;15.32;63.20;100533.91;2977754;23;20483;-94
2023/01/19 06:45:16;;;;;;;28.35;4.75;;;;;;;15.21;62.81;100505.47;4982749;28;20054;-94
2023/01/19 06:58:17;;;;;;;27.15;3.70;;;;;;;15.20;62.79;100520.06;5064652;28;20057;-89
2023/01/19 07:00:44;;;;;;;25.42;4.28;;;;;;;15.01;62.84;100496.31;5030296;28;20473;-88
2023/01/19 07:03:20;;;;;;;25.58;4.03;;;;;;;15.16;62.60;100497.09;5038614;28;20172;-86
2023/01/19 07:06:02;;;;;;;27.25;4.10;;;;;;;15.14;62.88;100509.97;5020761;28;20033;-91
2023/01/19 07:08:33;;;;;;;27.40;4.50;;;;;;;15.18;62.34;100504.00;5027349;28;20041;-94
2023/01/19 07:11:15;;;;;;;31.33;4.20;;;;;;;15.05;63.17;100519.28;5050917;28;20037;-90
2023/01/19 07:13:43;;;;;;;30.67;5.13;;;;;;;15.20;62.78;100526.31;5045206;28;20053;-87
2023/01/19 07:16:11;;;;;;;27.27;5.50;;;;;;;15.05;63.29;100500.31;4999764;28;20045;-90
2023/01/19 07:19:00;;;;;;;26.38;4.60;;;;;;;15.03;63.42;100524.03;5030082;28;20045;-93
2023/01/19 07:21:48;;;;;;;12.00;3.20;;;;;;;14.86;63.34;100509.94;5031833;28;20067;-86
2023/01/19 07:24:13;;;;;;;32.92;4.40;;;;;;;14.85;63.64;100495.56;5002595;28;20087;-82
2023/01/19 07:26:42;;;;;;;22.10;4.00;;;;;;;14.93;63.27;100498.13;4979143;28;20045;-83
2023/01/19 07:29:08;;;;;;;22.55;6.00;;;;;;;14.97;63.31;100494.00;4995876;28;20058;-85
2023/01/19 07:31:34;;;;;;;19.27;4.30;;;;;;;15.12;62.69;100512.03;4984508;28;20152;-86
2023/01/19 07:33:59;;;;;;;24.13;4.15;;;;;;;14.90;62.55;100479.56;5007757;28;20038;-85
2023/01/19 07:36:27;;;;;;;26.25;3.60;;;;;;;15.06;62.17;100512.84;5011015;28;20799;-86
2023/01/19 07:38:56;;;;;;;21.52;4.68;;;;;;;15.19;62.17;100523.78;5022242;28;20041;-83
2023/01/19 07:41:21;;;;;;;34.78;4.20;;;;;;;15.27;62.23;100520.94;5000931;28;20102;-88
2023/01/19 07:44:14;;;;;;;17.33;3.17;;;;;;;15.26;61.15;100513.84;5019125;28;20126;-87
2023/01/19 07:47:01;;;;;;;23.27;4.22;;;;;;;15.36;60.90;100508.09;5030608;28;20060;-90
2023/01/19 07:49:47;;;;;;;20.35;3.30;;;;;;;15.53;60.34;100530.31;5023886;28;20133;-89
2023/01/19 07:52:12;;;;;;;27.23;3.30;;;;;;;15.72;59.83;100545.91;5009137;28;20113;-89
2023/01/19 07:54:40;;;;;;;25.77;3.88;;;;;;;15.90;59.13;100536.47;5000343;28;20524;-80
2023/01/19 07:57:08;;;;;;;21.38;3.75;;;;;;;15.95;58.94;100544.84;5018759;28;20454;-86
2023/01/19 08:00:02;;;;;;;27.50;4.45;;;;;;;16.13;58.63;100553.28;5019668;28;20047;-87
2023/01/19 08:02:34;;;;;;;26.15;4.05;;;;;;;16.28;58.11;100533.34;5022107;28;20342;-84
2023/01/19 08:08:45;;;;;;;24.95;3.95;;;;;;;16.62;57.12;100557.69;4929756;29;20067;-87
2023/01/19 08:52:03;;;;;;;24.52;3.85;;;;;;;18.92;49.33;100547.06;4991447;28;20135;-90
2023/01/19 08:54:52;;;;;;;24.70;5.13;;;;;;;19.44;48.27;100538.75;4990050;28;20295;-90
2023/01/19 08:57:58;;;;;;;32.15;5.28;;;;;;;19.83;47.12;100531.28;4990436;28;20039;-90
2023/01/19 09:00:32;;;;;;;25.77;4.90;;;;;;;20.03;45.98;100504.63;4987176;28;20122;-86
2023/01/19 09:05:58;;;;;;;26.02;4.10;;;;;;;20.35;44.30;100525.47;5085741;22;20065;-87
2023/01/19 10:44:51;;;;;;;20.33;2.78;;;;;;;18.91;45.21;100439.16;5011534;28;20042;-92
2023/01/19 10:51:49;;;;;;;21.23;2.70;;;;;;;18.72;45.40;100437.38;5002035;28;20102;-88
2023/01/19 11:02:39;;;;;;;19.33;2.70;;;;;;;18.76;45.13;100433.16;5031762;28;20054;-89
2023/01/19 11:05:40;;;;;;;22.27;2.85;;;;;;;18.93;44.69;100419.88;5113337;23;20069;-90
2023/01/19 11:15:44;;;;;;;22.67;3.20;;;;;;;18.86;44.63;100395.41;4994942;28;20176;-91
2023/01/19 11:18:32;;;;;;;19.13;3.25;;;;;;;18.95;44.77;100404.97;5215701;23;20063;-88
2023/01/19 11:21:24;;;;;;;24.75;3.13;;;;;;;18.92;45.08;100421.78;4976671;28;20066;-90
2023/01/19 11:24:01;;;;;;;19.15;2.90;;;;;;;18.93;45.02;100434.31;4988158;28;20058;-89
2023/01/19 11:27:02;;;;;;;21.55;3.10;;;;;;;18.96;45.24;100430.31;4992225;28;20041;-87
2023/01/19 11:29:33;;;;;;;24.55;3.00;;;;;;;18.88;45.20;100415.09;4983080;28;20041;-81
2023/01/19 11:32:27;;;;;;;17.50;2.85;;;;;;;18.95;45.37;100425.94;4979387;28;20038;-87
2023/01/19 11:35:34;;;;;;;21.67;3.05;;;;;;;19.19;44.58;100408.72;4979619;28;20053;-90
2023/01/19 11:38:17;;;;;;;17.67;3.10;;;;;;;19.16;44.52;100422.81;5085701;23;20057;-92
2023/01/19 11:40:58;;;;;;;18.38;2.85;;;;;;;19.48;44.01;100414.56;5030753;28;20043;-90
2023/01/19 11:43:28;;;;;;;22.35;4.20;;;;;;;19.69;43.14;100382.47;5025621;28;20064;-88
2023/01/19 11:45:58;;;;;;;19.50;3.13;;;;;;;20.55;41.76;100402.31;5013310;28;20038;-88
2023/01/19 11:48:36;;;;;;;23.95;3.72;;;;;;;21.24;40.12;100376.19;5035916;28;20033;-91
2023/01/19 11:51:23;;;;;;;24.23;4.00;;;;;;;21.43;39.19;100387.03;5019785;28;20045;-89
2023/01/19 11:53:54;;;;;;;21.13;2.90;;;;;;;20.80;39.69;100393.97;5035660;28;20041;-89
2023/01/19 11:56:41;;;;;;;27.92;3.38;;;;;;;20.64;40.83;100399.03;5004180;28;20047;-90
2023/01/19 11:59:47;;;;;;;16.92;3.00;;;;;;;20.45;40.73;100384.59;5034826;28;20045;-93
2023/01/19 12:02:39;;;;;;;19.73;3.10;;;;;;;21.54;38.94;100383.47;5027214;28;20049;-90
2023/01/19 12:05:36;;;;;;;18.45;2.78;;;;;;;21.63;38.26;100384.75;5053835;28;20063;-88
2023/01/19 12:08:14;;;;;;;22.35;3.13;;;;;;;21.38;39.08;100389.63;5003487;28;20173;-89
2023/01/19 12:10:42;;;;;;;16.77;3.35;;;;;;;22.22;36.67;100381.84;5029802;28;20121;-88
2023/01/19 12:13:24;;;;;;;14.43;2.58;;;;;;;22.62;35.74;100367.25;5009472;28;20041;-86
2023/01/19 12:16:10;;;;;;;18.00;2.80;;;;;;;22.80;35.38;100366.16;4983085;28;20057;-88
2023/01/19 12:18:41;;;;;;;21.90;3.00;;;;;;;23.14;35.04;100369.75;4996206;28;20087;-87
2023/01/19 12:21:07;;;;;;;21.75;3.25;;;;;;;23.21;34.77;100369.56;5018584;28;20046;-86
2023/01/19 12:23:43;;;;;;;22.52;2.97;;;;;;;23.61;33.96;100363.00;5008975;28;20029;-88
2023/01/19 12:26:26;;;;;;;14.15;2.60;;;;;;;23.22;34.43;100352.03;5015265;28;20047;-86
2023/01/19 12:29:00;;;;;;;24.83;3.53;;;;;;;23.26;34.57;100353.19;5015124;28;20112;-87
2023/01/19 12:31:28;;;;;;;20.75;3.13;;;;;;;23.43;33.97;100361.38;5033906;28;20045;-87
2023/01/19 12:33:55;;;;;;;19.23;2.22;;;;;;;22.79;34.85;100372.72;4983521;28;20111;-86
2023/01/19 12:36:37;;;;;;;18.42;2.67;;;;;;;22.92;34.50;100377.88;4989331;28;20112;-85
2023/01/19 12:39:20;;;;;;;17.38;2.55;;;;;;;23.25;34.10;100375.38;5013465;28;20553;-87
2023/01/19 12:41:46;;;;;;;18.70;2.85;;;;;;;22.75;34.17;100375.13;5022929;28;20141;-87
2023/01/19 12:44:19;;;;;;;16.70;2.70;;;;;;;22.35;34.77;100358.81;5005515;28;20079;-86
2023/01/19 12:46:53;;;;;;;18.67;2.80;;;;;;;22.09;35.68;100385.66;4999291;28;20057;-87
2023/01/19 12:49:49;;;;;;;21.35;2.67;;;;;;;22.19;35.23;100378.72;5010414;28;20458;-88
2023/01/19 12:52:50;;;;;;;9.68;2.28;;;;;;;21.75;35.95;100397.56;5037109;28;20156;-87
2023/01/19 12:55:26;;;;;;;13.15;2.90;;;;;;;21.34;36.80;100372.03;5021787;28;20493;-85
2023/01/19 12:58:05;;;;;;;14.25;2.28;;;;;;;21.36;37.48;100391.75;5042610;28;20059;-87
2023/01/19 13:00:34;;;;;;;16.75;3.10;;;;;;;21.31;37.24;100400.69;5033677;28;20120;-87
2023/01/19 13:03:04;;;;;;;14.88;2.80;;;;;;;21.32;37.44;100412.44;5028174;28;20108;-87
2023/01/19 13:05:38;;;;;;;13.57;2.10;;;;;;;21.01;37.76;100406.25;5017805;28;20133;-88
2023/01/19 13:08:12;;;;;;;12.10;2.20;;;;;;;20.68;38.38;100391.22;5022939;28;20200;-87
2023/01/19 13:13:38;;;;;;;14.68;2.10;;;;;;;19.91;39.79;100416.41;5067326;22;20051;-91
2023/01/19 13:16:26;;;;;;;12.00;2.08;;;;;;;19.57;40.43;100396.84;4952727;29;20042;-89
2023/01/19 13:19:07;;;;;;;12.07;2.25;;;;;;;19.34;41.06;100369.41;4986665;28;20038;-91
2023/01/19 13:21:46;;;;;;;8.88;2.30;;;;;;;19.18;41.52;100357.19;4962798;28;20058;-92
2023/01/19 13:27:11;;;;;;;14.18;2.70;;;;;;;19.18;41.84;100398.91;5011660;23;20054;-88
2023/01/19 13:30:08;;;;;;;9.70;2.03;;;;;;;18.88;42.63;100390.56;5011958;28;20065;-89
2023/01/19 13:33:00;;;;;;;;;;;;;;;;;;;;;
2023/01/19 13:38:28;;;;;;;9.40;1.80;;;;;;;18.46;42.53;100362.19;4999997;28;20038;-90
2023/01/19 13:46:25;;;;;;;12.10;1.85;;;;;;;18.30;42.97;100350.75;4153235;23;20200;-90
2023/01/19 13:49:17;;;;;;;14.40;2.17;;;;;;;18.34;42.46;100391.97;4967909;28;20066;-89
2023/01/19 13:52:02;;;;;;;12.52;2.20;;;;;;;18.16;42.36;100378.25;4992846;28;20461;-93
2023/01/19 14:09:19;;;;;;;10.18;1.90;;;;;;;17.99;42.61;100353.47;3184725;26;20042;-92
2023/01/19 14:12:13;;;;;;;5.18;1.83;;;;;;;17.85;42.89;100353.53;4963230;28;20034;-89
2023/01/19 14:15:39;;;;;;;8.15;2.25;;;;;;;17.90;43.02;100380.88;4978303;28;20037;-91
2023/01/19 14:18:28;;;;;;;9.25;2.00;;;;;;;17.99;42.97;100407.84;4995580;28;20043;-91
2023/01/19 14:26:45;;;;;;;5.82;1.73;;;;;;;17.78;42.65;100401.63;755867;23;20345;-88
2023/01/19 14:34:52;;;;;;;11.23;1.98;;;;;;;17.71;42.34;100426.09;3059027;26;20110;-88
2023/01/19 14:37:22;;;;;;;7.85;1.77;;;;;;;17.34;42.71;100384.19;5026022;28;20097;-88
2023/01/19 14:40:13;;;;;;;11.77;2.00;;;;;;;17.55;42.93;100431.19;5024056;28;20049;-88
2023/01/19 14:42:52;;;;;;;6.22;2.00;;;;;;;17.57;43.13;100426.38;5022029;28;20053;-88
2023/01/19 14:45:30;;;;;;;8.32;2.03;;;;;;;17.32;43.52;100407.16;5018119;28;20049;-87
2023/01/19 14:48:11;;;;;;;5.72;2.38;;;;;;;17.22;43.83;100399.47;5045357;28;20048;-86
2023/01/19 14:50:39;;;;;;;10.05;2.00;;;;;;;17.09;44.19;100374.00;5013747;28;20104;-87
2023/01/19 14:53:16;;;;;;;7.07;1.83;;;;;;;17.17;44.03;100402.81;5031995;28;20038;-86
2023/01/19 14:55:45;;;;;;;11.32;2.58;;;;;;;17.16;44.00;100411.16;5012264;28;20053;-87
2023/01/19 14:58:13;;;;;;;10.13;2.00;;;;;;;17.08;43.93;100426.63;5029294;28;20056;-88
2023/01/19 15:00:41;;;;;;;10.85;2.85;;;;;;;16.99;44.38;100411.59;4991276;28;20550;-87
2023/01/19 15:03:13;;;;;;;12.13;2.80;;;;;;;17.11;44.16;100430.78;5015446;28;20053;-87
2023/01/19 15:05:43;;;;;;;6.10;1.65;;;;;;;16.99;44.24;100444.16;5002072;28;20034;-87
2023/01/19 15:08:30;;;;;;;17.30;2.55;;;;;;;17.02;44.38;100451.91;5022725;28;20072;-87
2023/01/19 15:10:56;;;;;;;8.35;2.13;;;;;;;16.95;44.43;100448.38;5036408;28;20030;-88
2023/01/19 15:13:21;;;;;;;;;;;;;;;16.95;44.75;100453.81;4999795;28;20049;-88
2023/01/19 15:16:17;;;;;;;8.25;1.80;;;;;;;16.73;44.86;100422.41;5024856;28;19909;-88
2023/01/19 15:18:50;;;;;;;13.52;2.03;;;;;;;16.65;44.99;100432.41;5009066;28;20511;-88
2023/01/19 15:21:27;;;;;;;8.27;1.98;;;;;;;16.70;45.14;100458.13;5019676;28;20038;-87
2023/01/19 15:23:54;;;;;;;8.13;2.00;;;;;;;16.57;45.36;100443.47;5027200;28;20068;-89
2023/01/19 15:26:25;;;;;;;12.40;2.08;;;;;;;16.63;45.60;100469.78;5022183;28;20038;-87
2023/01/19 15:28:51;;;;;;;8.18;2.00;;;;;;;16.65;45.60;100469.59;4991078;28;20034;-87
2023/01/19 15:31:39;;;;;;;;;;;;;;;16.67;45.39;100479.19;5017809;28;20044;-87
2023/01/19 15:34:10;;;;;;;10.73;2.00;;;;;;;16.57;45.64;100473.31;5025703;28;19913;-86
2023/01/19 15:36:38;;;;;;;8.20;2.40;;;;;;;16.48;45.83;100460.97;5016861;28;20037;-89
2023/01/19 15:39:38;;;;;;;11.15;2.70;;;;;;;16.56;45.55;100477.06;5022200;28;20033;-89
2023/01/19 15:42:24;;;;;;;8.32;2.20;;;;;;;16.39;45.99;100464.94;5002208;28;20088;-88
2023/01/19 15:44:54;;;;;;;7.13;1.73;;;;;;;16.32;45.68;100455.91;5030963;28;20038;-86
2023/01/19 15:47:23;;;;;;;11.80;2.30;;;;;;;16.43;46.04;100482.44;5006244;28;20072;-89
2023/01/19 15:50:09;;;;;;;7.50;2.03;;;;;;;16.25;46.01;100464.88;5013687;28;20072;-89
2023/01/19 15:52:37;;;;;;;7.57;1.90;;;;;;;16.39;46.08;100486.63;4998861;28;20054;-88
2023/01/19 15:55:04;;;;;;;9.07;2.58;;;;;;;16.41;45.41;100498.97;4999802;28;20060;-86
2023/01/19 15:57:30;;;;;;;8.90;2.05;;;;;;;16.41;45.64;100495.38;4984018;28;20072;-86
2023/01/19 15:59:58;;;;;;;6.53;1.90;;;;;;;16.38;45.91;100504.78;5003106;28;20145;-87
2023/01/19 16:02:27;;;;;;;7.13;2.20;;;;;;;16.35;45.94;100507.06;5001175;28;20113;-90
2023/01/19 16:04:57;;;;;;;10.95;2.15;;;;;;;16.32;45.96;100519.16;5048147;28;20052;-88
2023/01/19 16:07:44;;;;;;;7.55;1.88;;;;;;;16.23;46.51;100517.66;5016249;28;20564;-89
2023/01/19 16:10:15;;;;;;;11.48;2.25;;;;;;;16.20;46.26;100520.75;4992412;28;20049;-88
2023/01/19 16:12:44;;;;;;;7.38;2.40;;;;;;;16.24;46.20;100520.16;5035800;28;20033;-89
2023/01/19 16:15:12;;;;;;;8.27;2.28;;;;;;;16.06;46.35;100510.88;5009105;28;20038;-88
2023/01/19 16:17:58;;;;;;;7.68;2.10;;;;;;;16.00;46.51;100510.66;5016312;28;20066;-87
2023/01/19 16:20:25;;;;;;;8.38;2.25;;;;;;;15.95;46.35;100512.31;4995507;28;20120;-89
2023/01/19 16:22:50;;;;;;;6.85;2.65;;;;;;;15.99;46.70;100532.53;4996677;28;20128;-86
2023/01/19 16:25:17;;;;;;;12.80;2.60;;;;;;;15.94;47.00;100507.91;5019226;28;20540;-89
2023/01/19 16:27:43;;;;;;;5.35;1.98;;;;;;;16.09;46.83;100548.47;5010160;28;20124;-86
2023/01/19 16:30:13;;;;;;;11.00;2.60;;;;;;;16.05;47.29;100526.31;5006161;28;20041;-87
2023/01/19 16:33:05;;;;;;;8.35;2.80;;;;;;;15.74;47.46;100491.53;5008691;28;20038;-88
2023/01/19 16:35:33;;;;;;;7.38;2.53;;;;;;;15.99;47.30;100532.53;5025849;28;20054;-89
2023/01/19 16:37:59;;;;;;;8.60;3.17;;;;;;;15.88;47.18;100497.88;4985189;28;20034;-87
2023/01/19 16:40:27;;;;;;;8.40;2.50;;;;;;;15.98;47.70;100517.31;5014033;28;20059;-89
2023/01/19 16:42:54;;;;;;;9.90;2.13;;;;;;;15.87;47.76;100496.19;4988276;28;20053;-89
2023/01/19 16:45:23;;;;;;;7.75;2.15;;;;;;;15.95;47.40;100485.19;5016105;28;20049;-86
2023/01/19 16:47:53;;;;;;;11.27;2.38;;;;;;;15.95;47.72;100501.44;5007505;28;20042;-89
2023/01/19 16:50:19;;;;;;;7.43;2.20;;;;;;;15.89;47.88;100485.97;4993760;28;20046;-88
2023/01/19 16:52:56;;;;;;;8.80;2.50;;;;;;;15.92;48.03;100493.69;4994152;28;20042;-87
2023/01/19 16:55:28;;;;;;;8.00;2.25;;;;;;;15.89;47.70;100494.09;5003185;28;20038;-87
2023/01/19 16:58:17;;;;;;;5.70;2.10;;;;;;;15.88;48.08;100500.59;5005681;28;20048;-88
2023/01/19 17:00:56;;;;;;;8.55;2.00;;;;;;;15.91;48.15;100498.28;5014968;28;20088;-89
2023/01/19 17:03:25;;;;;;;6.80;2.05;;;;;;;15.80;48.23;100498.84;5027474;28;20046;-90
2023/01/19 17:05:53;;;;;;;10.65;2.20;;;;;;;15.78;48.52;100495.50;4986531;28;20049;-87
2023/01/19 17:08:25;;;;;;;8.25;2.28;;;;;;;15.72;48.84;100507.97;4972280;28;20494;-88
2023/01/19 17:10:54;;;;;;;11.30;2.75;;;;;;;15.71;48.62;100506.31;5009463;28;20113;-88
2023/01/19 17:13:20;;;;;;;10.43;2.88;;;;;;;15.64;48.63;100508.13;5009305;28;20042;-86
2023/01/19 17:15:49;;;;;;;13.35;2.38;;;;;;;15.67;48.61;100499.56;5002277;28;20037;-87
2023/01/19 17:18:16;;;;;;;7.20;2.08;;;;;;;15.65;48.53;100500.81;4992755;28;20116;-89
2023/01/19 17:20:45;;;;;;;7.90;1.98;;;;;;;15.71;48.71;100498.19;5003738;28;20045;-88
2023/01/19 17:23:10;;;;;;;8.70;2.00;;;;;;;15.60;49.07;100504.94;4991154;28;20110;-87
2023/01/19 17:25:37;;;;;;;8.63;2.20;;;;;;;15.59;49.14;100491.59;5023563;28;20049;-88
2023/01/19 17:28:03;;;;;;;9.18;2.20;;;;;;;15.67;48.86;100523.13;5006907;28;20038;-89
2023/01/19 17:30:34;;;;;;;8.23;2.20;;;;;;;15.63;49.08;100509.13;4989630;28;20035;-87
2023/01/19 17:33:06;;;;;;;7.80;2.10;;;;;;;15.71;48.88;100530.72;5011441;28;20102;-89
2023/01/19 17:35:37;;;;;;;7.95;1.95;;;;;;;15.55;48.85;100512.00;5004884;28;20471;-88
2023/01/19 17:38:02;;;;;;;9.60;2.50;;;;;;;15.63;49.13;100538.94;4980333;28;20035;-87
2023/01/19 17:40:29;;;;;;;7.13;2.08;;;;;;;15.66;48.69;100533.13;4981479;28;20518;-87
2023/01/19 17:43:12;;;;;;;7.30;2.00;;;;;;;15.62;48.97;100529.16;4991308;28;20061;-90
2023/01/19 17:45:46;;;;;;;6.38;1.90;;;;;;;15.66;49.15;100540.41;5001746;28;20098;-89
2023/01/19 17:48:28;;;;;;;8.90;2.05;;;;;;;15.56;49.21;100538.88;4997672;28;20046;-91
2023/01/19 17:50:54;;;;;;;7.60;2.40;;;;;;;15.53;49.23;100535.75;5007270;28;20046;-89
2023/01/19 17:53:43;;;;;;;7.35;2.42;;;;;;;15.59;49.51;100537.66;5002066;28;20471;-90
2023/01/19 17:56:15;;;;;;;8.73;2.35;;;;;;;15.51;49.63;100538.63;4985925;28;20101;-88
2023/01/19 17:58:45;;;;;;;7.35;1.88;;;;;;;15.60;49.23;100547.47;4978776;28;20043;-89
2023/01/19 18:01:15;;;;;;;9.75;2.10;;;;;;;15.64;49.37;100551.47;4982314;28;20039;-88
2023/01/19 18:03:41;;;;;;;9.23;2.03;;;;;;;15.63;49.72;100552.50;4958748;28;20054;-88
2023/01/19 18:06:10;;;;;;;7.00;3.05;;;;;;;15.50;49.40;100555.09;4968847;28;20120;-88
2023/01/19 18:08:46;;;;;;;8.48;2.60;;;;;;;15.58;49.47;100544.94;4977972;28;20102;-86
2023/01/19 18:11:17;;;;;;;6.30;2.15;;;;;;;15.56;49.65;100559.72;4980640;28;20038;-86
2023/01/19 18:13:43;;;;;;;9.07;2.30;;;;;;;15.57;49.71;100553.28;4994796;28;20054;-90
2023/01/19 18:16:31;;;;;;;11.90;2.60;;;;;;;15.51;50.22;100548.66;4997453;28;20054;-90
2023/01/19 18:19:01;;;;;;;8.90;2.70;;;;;;;15.64;49.65;100551.47;4993367;28;20050;-89
2023/01/19 18:21:33;;;;;;;9.25;2.45;;;;;;;15.65;49.63;100547.72;4995995;28;20038;-88
2023/01/19 18:24:01;;;;;;;9.20;2.40;;;;;;;15.40;49.78;100515.66;4997187;28;20042;-89
2023/01/19 18:26:41;;;;;;;10.35;2.90;;;;;;;15.67;49.76;100561.91;4987877;28;20054;-89
2023/01/19 18:29:09;;;;;;;6.80;3.10;;;;;;;15.72;49.65;100545.09;5001301;28;20038;-90
2023/01/19 18:31:37;;;;;;;10.25;3.50;;;;;;;15.76;49.61;100540.97;5015966;28;20073;-88